| time (UTC) | temp C | wind direction | speed KPH | gust KPH | rain 1hr cm | rain 24hr cm | rain mn cm | humidity % | barometer mb |
| 20260904054601 | 23 | 0 | 0.0 | 0.0 | 0.00 | 0.38 | 0.00 | 97 | 1010.8 |
| 20260904053053 | 23 | 0 | 0.0 | 0.0 | 0.00 | 0.38 | 0.00 | 97 | 1011.3 |
| 20260904051601 | 23 | 0 | 0.0 | 0.0 | 0.00 | 0.38 | 0.00 | 97 | 1011.1 |
| 20260904050100 | 23 | 0 | 0.0 | 0.0 | 0.00 | 0.38 | 0.00 | 97 | 1011.1 |
| 20260904044601 | 23 | 0 | 0.0 | 0.0 | 0.00 | 0.64 | 0.00 | 97 | 1011.3 |
| 20260904043051 | 23 | 0 | 0.0 | 0.0 | 0.00 | 0.64 | 0.00 | 96 | 1011.3 |
| 20260904041551 | 23 | 0 | 0.0 | 0.0 | 0.00 | 0.64 | 0.00 | 96 | 1011.7 |
| 20260904040105 | 23 | 0 | 0.0 | 0.0 | 0.00 | 0.64 | 0.00 | 96 | 1011.7 |
| 20260904034604 | 23 | 0 | 0.0 | 0.0 | 0.00 | 0.64 | 0.64 | 96 | 1011.5 |
| 20260904033052 | 23 | 0 | 0.0 | 0.0 | 0.00 | 0.64 | 0.64 | 96 | 1011.3 |
| 20260904031601 | 23 | 0 | 0.0 | 0.0 | 0.00 | 0.64 | 0.64 | 96 | 1011.4 |
| 20260904030058 | 23 | 0 | 0.0 | 0.0 | 0.00 | 0.64 | 0.64 | 96 | 1011.6 |
| 20260904024551 | 23 | 0 | 0.0 | 0.0 | 0.00 | 0.64 | 0.64 | 95 | 1011.6 |
| 20260904023050 | 23 | 0 | 0.0 | 0.0 | 0.00 | 0.64 | 0.64 | 95 | 1012.1 |
| 20260904021601 | 23 | 0 | 0.0 | 0.0 | 0.00 | 0.64 | 0.64 | 95 | 1012.2 |
| 20260904020100 | 23 | 0 | 0.0 | 0.0 | 0.00 | 0.64 | 0.64 | 95 | 1012.4 |
| 20260904014556 | 23 | 0 | 0.0 | 0.0 | 0.00 | 0.64 | 0.64 | 95 | 1012.6 |
| 20260904013051 | 23 | 0 | 0.0 | 0.0 | 0.00 | 0.64 | 0.64 | 94 | 1012.4 |
| 20260904011551 | 23 | 0 | 0.0 | 0.0 | 0.00 | 0.64 | 0.64 | 94 | 1012.4 |
| 20260904010054 | 23 | 0 | 0.0 | 0.0 | 0.00 | 0.64 | 0.64 | 93 | 1012.3 |
| 20260904004601 | 23 | 0 | 0.0 | 0.0 | 0.00 | 0.64 | 0.64 | 93 | 1012.3 |
| 20260904003051 | 24 | 0 | 0.0 | 0.0 | 0.00 | 0.64 | 0.64 | 92 | 1012.5 |
| 20260904001550 | 24 | 0 | 0.0 | 0.0 | 0.00 | 0.64 | 0.64 | 91 | 1012.1 |
| 20260904000134 | 25 | 0 | 0.0 | 0.0 | 0.00 | 0.64 | 0.64 | 90 | 1011.9 |
| 20260903234556 | 25 | 0 | 0.0 | 0.0 | 0.00 | 0.64 | 0.64 | 89 | 1011.9 |
| 20260903233052 | 25 | 0 | 0.0 | 0.0 | 0.00 | 0.64 | 0.64 | 88 | 1011.7 |
| 20260903231549 | 26 | 0 | 0.0 | 0.0 | 0.00 | 0.64 | 0.64 | 87 | 1011.3 |
| 20260903230108 | 27 | 0 | 0.0 | 0.0 | 0.00 | 0.64 | 0.64 | 84 | 1011.6 |
| 20260903224606 | 27 | 0 | 0.0 | 0.0 | 0.00 | 0.64 | 0.64 | 81 | 1011.8 |
| 20260903223101 | 28 | 0 | 0.0 | 0.0 | 0.00 | 0.64 | 0.64 | 80 | 1012.0 |
| 20260903221600 | 28 | 0 | 0.0 | 0.0 | 0.00 | 0.64 | 0.64 | 79 | 1012.1 |
| 20260903220118 | 29 | 0 | 0.0 | 0.0 | 0.00 | 0.64 | 0.64 | 78 | 1011.9 |
| 20260903214557 | 29 | 0 | 0.0 | 0.0 | 0.00 | 0.64 | 0.64 | 77 | 1011.9 |
| 20260903213052 | 30 | 0 | 0.0 | 0.0 | 0.00 | 0.64 | 0.64 | 75 | 1011.9 |
| 20260903211615 | 29 | 0 | 0.0 | 0.0 | 0.00 | 0.64 | 0.64 | 76 | 1011.8 |
| 20260903204558 | 30 | 0 | 0.0 | 0.0 | 0.00 | 0.64 | 0.64 | 73 | 1011.9 |
| 20260903203053 | 30 | 0 | 0.0 | 3.2 | 0.00 | 0.64 | 0.64 | 74 | 1011.9 |
| 20260903201559 | 30 | 0 | 0.0 | 1.6 | 0.00 | 0.64 | 0.64 | 75 | 1011.9 |
| 20260903200053 | 28 | 0 | 0.0 | 3.2 | 0.00 | 0.64 | 0.64 | 76 | 1012.0 |
| 20260903194551 | 28 | 0 | 0.0 | 6.4 | 0.00 | 0.69 | 0.64 | 79 | 1012.1 |
| 20260903193100 | 29 | 261 | 3.2 | 12.9 | 0.00 | 0.69 | 0.64 | 74 | 1012.3 |
| 20260903191553 | 29 | 236 | 0.0 | 8.0 | 0.00 | 0.69 | 0.64 | 75 | 1012.5 |
| 20260903190050 | 29 | 0 | 0.0 | 11.3 | 0.00 | 0.69 | 0.64 | 72 | 1012.5 |
| 20260903184604 | 29 | 0 | 0.0 | 3.2 | 0.00 | 0.97 | 0.64 | 73 | 1012.7 |
| 20260903183058 | 28 | 0 | 0.0 | 11.3 | 0.00 | 0.97 | 0.64 | 74 | 1012.7 |
| 20260903181555 | 28 | 0 | 0.0 | 6.4 | 0.00 | 0.97 | 0.64 | 76 | 1012.7 |
| 20260903180104 | 27 | 0 | 0.0 | 11.3 | 0.00 | 0.97 | 0.64 | 77 | 1012.6 |
| 20260903174612 | 27 | 0 | 1.6 | 16.1 | 0.00 | 0.97 | 0.64 | 78 | 1012.8 |
| 20260903173106 | 27 | 279 | 1.6 | 12.9 | 0.00 | 0.97 | 0.64 | 78 | 1013.2 |
| 20260903171602 | 27 | 0 | 6.4 | 17.7 | 0.00 | 0.97 | 0.64 | 78 | 1013.5 |
| 20260903170107 | 27 | 262 | 8.0 | 19.3 | 0.00 | 0.97 | 0.64 | 78 | 1013.6 |
| 20260903164554 | 26 | 0 | 0.0 | 9.7 | 0.00 | 0.97 | 0.64 | 81 | 1013.8 |
| 20260903163049 | 26 | 259 | 3.2 | 14.5 | 0.00 | 0.97 | 0.64 | 81 | 1013.8 |
| 20260903161553 | 25 | 259 | 4.8 | 19.3 | 0.00 | 0.97 | 0.64 | 82 | 1013.9 |
| 20260903160050 | 25 | 254 | 0.0 | 6.4 | 0.00 | 0.97 | 0.64 | 87 | 1014.1 |
| 20260903154555 | 25 | 0 | 6.4 | 20.9 | 0.00 | 0.97 | 0.64 | 88 | 1014.5 |
| 20260903153058 | 24 | 0 | 3.2 | 12.9 | 0.00 | 0.97 | 0.64 | 90 | 1014.5 |
| 20260903151558 | 23 | 0 | 1.6 | 14.5 | 0.00 | 0.97 | 0.64 | 91 | 1014.4 |
| 20260903150113 | 23 | 286 | 0.0 | 14.5 | 0.00 | 0.97 | 0.64 | 92 | 1014.5 |
| 20260903144601 | 22 | 0 | 0.0 | 12.9 | 0.00 | 0.97 | 0.64 | 93 | 1014.5 |
| 20260903143100 | 22 | 265 | 3.2 | 14.5 | 0.00 | 0.97 | 0.64 | 94 | 1014.6 |
| 20260903141556 | 22 | 0 | 4.8 | 17.7 | 0.00 | 0.97 | 0.64 | 95 | 1014.7 |
| 20260903140106 | 21 | 273 | 0.0 | 6.4 | 0.00 | 0.97 | 0.64 | 97 | 1014.5 |
| 20260903134601 | 21 | 269 | 1.6 | 9.7 | 0.00 | 0.97 | 0.64 | 99 | 1014.5 |
| 20260903133100 | 21 | 0 | 1.6 | 12.9 | 0.00 | 0.97 | 0.64 | 100 | 1014.4 |
| 20260903131600 | 21 | 0 | 0.0 | 11.3 | 0.00 | 0.97 | 0.64 | 100 | 1014.5 |
| 20260903130117 | 21 | 0 | 0.0 | 4.8 | 0.00 | 0.97 | 0.64 | 100 | 1014.7 |
| 20260903124607 | 20 | 0 | 0.0 | 3.2 | 0.00 | 0.97 | 0.64 | 100 | 1014.9 |
| 20260903123100 | 20 | 0 | 0.0 | 0.0 | 0.00 | 0.97 | 0.64 | 100 | 1015.1 |
| 20260903121553 | 20 | 0 | 0.0 | 0.0 | 0.00 | 0.97 | 0.64 | 100 | 1015.1 |
| 20260903120100 | 20 | 0 | 0.0 | 0.0 | 0.03 | 0.97 | 0.64 | 100 | 1014.7 |
| 20260903114607 | 20 | 0 | 0.0 | 0.0 | 0.03 | 0.97 | 0.64 | 100 | 1015.1 |
| 20260903113058 | 20 | 0 | 0.0 | 0.0 | 0.03 | 0.97 | 0.64 | 100 | 1015.2 |
| 20260903111622 | 19 | 0 | 0.0 | 0.0 | 0.03 | 0.97 | 0.64 | 100 | 1015.2 |
| 20260903110107 | 19 | 0 | 0.0 | 0.0 | 0.00 | 0.94 | 0.61 | 100 | 1015.2 |
| 20260903104631 | 19 | 0 | 0.0 | 0.0 | 0.00 | 0.94 | 0.61 | 100 | 1015.2 |
| 20260903103056 | 19 | 0 | 0.0 | 0.0 | 0.00 | 0.94 | 0.61 | 100 | 1015.2 |
| 20260903101554 | 19 | 0 | 0.0 | 3.2 | 0.00 | 0.94 | 0.61 | 100 | 1015.2 |
| 20260903100051 | 19 | 0 | 0.0 | 4.8 | 0.00 | 0.94 | 0.61 | 100 | 1014.8 |
| 20260903094608 | 19 | 265 | 0.0 | 12.9 | 0.00 | 0.97 | 0.61 | 100 | 1014.6 |
| 20260903093054 | 19 | 0 | 0.0 | 6.4 | 0.00 | 0.97 | 0.61 | 100 | 1014.5 |
| 20260903091551 | 19 | 0 | 1.6 | 11.3 | 0.00 | 0.97 | 0.61 | 100 | 1014.6 |
| 20260903090052 | 19 | 0 | 0.0 | 4.8 | 0.00 | 0.97 | 0.61 | 100 | 1015.0 |
| 20260903084552 | 19 | 0 | 0.0 | 0.0 | 0.00 | 0.99 | 0.61 | 100 | 1014.9 |
| 20260903083059 | 19 | 0 | 0.0 | 0.0 | 0.00 | 0.99 | 0.61 | 100 | 1014.9 |
| 20260903081553 | 18 | 0 | 0.0 | 4.8 | 0.00 | 0.99 | 0.61 | 100 | 1015.2 |
| 20260903080052 | 18 | 0 | 0.0 | 0.0 | 0.03 | 0.99 | 0.61 | 100 | 1015.7 |
| 20260903074604 | 18 | 0 | 0.0 | 0.0 | 0.05 | 0.99 | 0.61 | 100 | 1015.6 |
| 20260903073108 | 18 | 0 | 0.0 | 0.0 | 0.05 | 0.99 | 0.61 | 100 | 1015.5 |
| 20260903071553 | 18 | 0 | 0.0 | 0.0 | 0.05 | 0.99 | 0.61 | 100 | 1015.5 |
| 20260903070051 | 18 | 0 | 0.0 | 1.6 | 0.05 | 0.97 | 0.58 | 100 | 1015.6 |
| 20260903064600 | 18 | 0 | 0.0 | 1.6 | 0.03 | 0.97 | 0.56 | 100 | 1015.7 |
| 20260903063057 | 18 | 0 | 0.0 | 0.0 | 0.05 | 0.97 | 0.56 | 100 | 1016.0 |
| 20260903061612 | 18 | 0 | 0.0 | 0.0 | 0.13 | 0.97 | 0.56 | 100 | 1016.3 |
| 20260903060105 | 18 | 0 | 0.0 | 0.0 | 0.25 | 0.94 | 0.53 | 100 | 1016.6 |